Time;durP1;ratioP1;P1;durP2;ratioP2;P2;SDS_P1;SDS_P2;PMS_P1;PMS_P2;Temp;Humidity;BMP_temperature;BMP_pressure;BME280_temperature;BME280_humidity;BME280_pressure;Samples;Min_cycle;Max_cycle;Signal;HPM_P1;HPM_P2
2023/11/22 00:00:40;;;;;;;18.80;10.80;;;;;;;8.06;63.50;94248.97;4868958;29;20029;-78
2023/11/22 00:03:06;;;;;;;16.23;10.77;;;;;;;8.10;63.50;94257.84;4872944;29;20029;-78
2023/11/22 00:05:31;;;;;;;17.10;10.80;;;;;;;8.10;63.63;94250.41;4871746;29;20033;-77
2023/11/22 00:07:56;;;;;;;20.85;11.90;;;;;;;8.10;63.65;94252.38;4871580;29;20036;-78
2023/11/22 00:10:23;;;;;;;17.38;11.70;;;;;;;8.11;63.53;94249.19;4856377;29;20053;-78
2023/11/22 00:12:48;;;;;;;21.38;12.05;;;;;;;8.11;63.67;94262.88;4870571;29;20037;-77
2023/11/22 00:15:17;;;;;;;20.48;11.80;;;;;;;8.13;63.71;94257.72;4833000;29;20044;-77
2023/11/22 00:17:46;;;;;;;19.38;12.50;;;;;;;8.12;63.73;94253.44;4858367;29;20067;-77
2023/11/22 00:20:11;;;;;;;20.45;11.50;;;;;;;8.09;63.99;94250.84;4874811;29;20104;-77
2023/11/22 00:22:37;;;;;;;18.73;10.98;;;;;;;8.07;64.10;94251.25;4874036;29;20052;-77
2023/11/22 00:25:03;;;;;;;17.60;10.50;;;;;;;8.06;64.36;94243.50;4855567;29;20044;-79
2023/11/22 00:27:32;;;;;;;19.25;11.52;;;;;;;8.05;64.19;94240.00;4869666;29;20033;-77
2023/11/22 00:29:58;;;;;;;20.95;11.00;;;;;;;8.05;64.00;94245.47;4860709;29;20072;-77
2023/11/22 00:32:24;;;;;;;21.02;12.05;;;;;;;8.07;63.78;94242.28;4854502;29;20067;-77
2023/11/22 00:34:49;;;;;;;16.13;10.85;;;;;;;8.08;63.61;94249.28;4869372;29;20380;-77
2023/11/22 00:37:15;;;;;;;15.80;11.18;;;;;;;8.07;63.88;94251.25;4864120;29;20124;-77
2023/11/22 00:39:41;;;;;;;18.17;10.90;;;;;;;8.11;63.43;94251.94;4857830;29;20630;-78
2023/11/22 00:42:07;;;;;;;18.63;10.75;;;;;;;8.09;63.57;94253.56;4851594;29;20037;-77
2023/11/22 00:44:33;;;;;;;17.23;10.82;;;;;;;8.08;63.61;94265.72;4858232;29;20042;-77
2023/11/22 00:46:58;;;;;;;16.73;10.63;;;;;;;8.07;63.85;94253.22;4874216;29;20476;-76
2023/11/22 00:49:24;;;;;;;15.82;10.98;;;;;;;8.12;64.06;94255.44;4841328;29;20038;-77
2023/11/22 00:51:50;;;;;;;18.85;11.70;;;;;;;8.10;63.85;94258.59;4869846;29;20037;-79
2023/11/22 00:54:16;;;;;;;16.25;10.77;;;;;;;8.07;63.96;94256.72;4869307;29;20140;-77
2023/11/22 00:56:41;;;;;;;15.85;11.20;;;;;;;8.10;63.91;94249.63;4863261;29;20569;-76
2023/11/22 00:59:07;;;;;;;14.63;9.65;;;;;;;8.11;63.82;94243.72;4857001;29;20105;-77
2023/11/22 01:01:32;;;;;;;17.20;11.45;;;;;;;8.11;63.98;94251.94;4869662;29;20084;-77
2023/11/22 01:03:58;;;;;;;22.70;10.77;;;;;;;8.12;63.66;94239.75;4854724;29;20030;-77
2023/11/22 01:06:24;;;;;;;16.23;10.18;;;;;;;8.11;64.13;94235.50;4853054;29;20123;-77
2023/11/22 01:08:49;;;;;;;15.70;10.57;;;;;;;8.10;63.98;94223.03;4857598;29;20029;-76
2023/11/22 01:11:15;;;;;;;18.83;11.30;;;;;;;8.10;64.19;94225.00;4855621;29;20404;-77
2023/11/22 01:13:42;;;;;;;17.60;11.65;;;;;;;8.10;64.08;94217.53;4856573;29;20112;-77
2023/11/22 01:16:08;;;;;;;14.68;10.50;;;;;;;8.16;63.99;94224.00;4841187;29;20106;-77
2023/11/22 01:18:33;;;;;;;15.98;10.90;;;;;;;8.17;64.17;94224.78;4855271;29;20040;-77
2023/11/22 01:20:59;;;;;;;16.65;10.98;;;;;;;8.15;64.39;94227.19;4857517;29;20166;-77
2023/11/22 01:23:24;;;;;;;18.80;11.57;;;;;;;8.21;64.20;94230.91;4869297;29;20042;-77
2023/11/22 01:25:50;;;;;;;19.50;11.05;;;;;;;8.17;64.13;94225.53;4869389;29;20037;-78
2023/11/22 01:28:17;;;;;;;15.30;10.50;;;;;;;8.14;64.30;94229.16;4868517;29;20044;-77
2023/11/22 01:30:45;;;;;;;13.65;9.80;;;;;;;8.11;64.29;94208.13;4869246;29;20752;-78
2023/11/22 01:33:11;;;;;;;15.40;11.25;;;;;;;8.14;64.40;94209.22;4869161;29;20540;-77
2023/11/22 01:35:36;;;;;;;17.00;10.70;;;;;;;8.24;63.97;94219.81;4839292;29;20462;-78
2023/11/22 01:38:04;;;;;;;18.55;10.95;;;;;;;8.19;64.23;94192.22;4846121;29;20032;-78
2023/11/22 01:40:33;;;;;;;13.30;10.43;;;;;;;8.16;64.31;94199.38;4873335;29;20033;-78
2023/11/22 01:42:58;;;;;;;16.83;10.88;;;;;;;8.20;63.99;94189.06;4883643;29;20093;-77
2023/11/22 01:45:24;;;;;;;15.85;10.73;;;;;;;8.19;63.94;94181.28;4866199;29;20112;-78
2023/11/22 01:47:50;;;;;;;15.60;10.73;;;;;;;8.19;64.09;94198.47;4873618;29;20025;-77
2023/11/22 01:50:16;;;;;;;16.95;11.55;;;;;;;8.13;64.03;94200.22;4849827;29;20041;-79
2023/11/22 01:52:42;;;;;;;18.73;11.13;;;;;;;8.13;64.35;94202.19;4855129;29;20029;-78
2023/11/22 01:55:09;;;;;;;16.77;11.32;;;;;;;8.18;64.42;94196.19;4868509;29;20038;-77
2023/11/22 01:57:34;;;;;;;14.68;10.82;;;;;;;8.21;64.34;94209.78;4871199;29;20063;-77
2023/11/22 02:00:04;;;;;;;15.68;10.80;;;;;;;8.29;63.97;94199.34;4851574;29;20107;-77
2023/11/22 02:02:33;;;;;;;14.75;10.48;;;;;;;8.26;63.98;94202.97;4861093;29;20060;-77
2023/11/22 02:04:59;;;;;;;16.23;10.77;;;;;;;8.18;64.02;94196.19;4852760;29;20030;-77
2023/11/22 02:07:27;;;;;;;17.67;10.52;;;;;;;8.18;64.09;94196.94;4868634;29;20439;-77
2023/11/22 02:09:52;;;;;;;19.63;11.73;;;;;;;8.18;64.16;94187.97;4853297;29;20034;-77
2023/11/22 02:12:19;;;;;;;14.05;11.07;;;;;;;8.15;64.17;94183.38;4868957;29;20036;-77
2023/11/22 02:14:44;;;;;;;14.52;10.27;;;;;;;8.14;64.18;94182.63;4854739;29;20128;-77
2023/11/22 02:17:10;;;;;;;15.02;10.93;;;;;;;8.19;64.10;94184.03;4873289;29;20131;-77
2023/11/22 02:19:36;;;;;;;18.65;11.77;;;;;;;8.16;64.33;94179.44;4855850;29;20033;-77
2023/11/22 02:22:02;;;;;;;17.88;12.05;;;;;;;8.08;64.39;94173.41;4850967;29;20037;-77
2023/11/22 02:24:27;;;;;;;18.67;12.13;;;;;;;8.13;64.30;94180.31;4868700;29;20100;-77
2023/11/22 02:26:53;;;;;;;16.95;11.88;;;;;;;8.09;64.42;94176.94;4871460;29;20112;-77
2023/11/22 02:29:18;;;;;;;18.77;11.30;;;;;;;8.14;64.15;94182.63;4855777;29;20172;-77
2023/11/22 02:31:43;;;;;;;17.48;11.75;;;;;;;8.12;64.13;94189.72;4873115;29;20369;-78
2023/11/22 02:34:09;;;;;;;16.98;11.93;;;;;;;8.14;64.16;94190.03;4854894;29;20147;-78
2023/11/22 02:36:34;;;;;;;18.48;12.30;;;;;;;8.12;64.31;94185.00;4840092;29;20527;-76
2023/11/22 02:39:00;;;;;;;24.35;12.65;;;;;;;8.10;64.42;94183.94;4837720;29;20049;-77
2023/11/22 02:41:29;;;;;;;20.23;12.55;;;;;;;8.12;64.09;94173.31;4864459;29;20059;-78
2023/11/22 02:43:55;;;;;;;15.40;11.77;;;;;;;8.08;64.23;94184.34;4854769;29;20101;-78
2023/11/22 02:46:20;;;;;;;20.27;13.70;;;;;;;8.07;64.39;94185.56;4867411;29;20092;-77
2023/11/22 02:48:46;;;;;;;18.20;11.43;;;;;;;8.06;64.47;94178.56;4852820;29;20037;-76
2023/11/22 02:51:11;;;;;;;20.15;14.02;;;;;;;8.05;64.52;94176.25;4859035;29;20048;-77
2023/11/22 02:53:37;;;;;;;19.20;11.65;;;;;;;8.06;64.77;94169.59;4841616;29;20036;-77
2023/11/22 02:56:02;;;;;;;21.83;11.73;;;;;;;8.03;64.95;94182.19;4871440;29;20108;-78
2023/11/22 02:58:29;;;;;;;17.83;12.68;;;;;;;8.07;65.28;94190.28;4855074;29;20045;-77
2023/11/22 03:00:57;;;;;;;20.08;12.43;;;;;;;8.07;64.79;94180.09;4848833;29;20218;-77
2023/11/22 03:03:23;;;;;;;17.95;11.75;;;;;;;8.06;64.66;94181.28;4869481;29;20041;-76
2023/11/22 03:05:50;;;;;;;16.85;11.60;;;;;;;8.09;64.82;94183.16;4855804;29;20084;-77
2023/11/22 03:08:16;;;;;;;15.32;11.40;;;;;;;8.07;64.92;94182.81;4854326;29;20048;-78
2023/11/22 03:10:41;;;;;;;18.10;11.35;;;;;;;8.05;65.23;94174.28;4825883;29;20042;-78
2023/11/22 03:13:08;;;;;;;14.85;11.30;;;;;;;8.04;65.36;94172.00;4851980;29;20033;-78
2023/11/22 03:15:34;;;;;;;15.95;11.25;;;;;;;8.10;64.73;94181.19;4839844;29;20107;-77
2023/11/22 03:18:01;;;;;;;19.17;11.57;;;;;;;8.05;64.81;94185.25;4855767;29;20029;-77
2023/11/22 03:20:26;;;;;;;18.42;11.55;;;;;;;8.04;64.92;94185.69;4878252;29;20022;-80
2023/11/22 03:22:52;;;;;;;16.30;11.63;;;;;;;7.97;64.98;94178.44;4867993;29;20143;-78
2023/11/22 03:25:17;;;;;;;17.13;11.95;;;;;;;8.04;65.31;94191.94;4871300;29;20032;-77
2023/11/22 03:27:44;;;;;;;16.48;11.43;;;;;;;8.02;65.17;94194.31;4855272;29;20025;-78
2023/11/22 03:30:11;;;;;;;17.90;11.40;;;;;;;8.08;64.90;94200.00;4841916;29;20076;-78
2023/11/22 03:32:39;;;;;;;15.98;11.27;;;;;;;8.07;64.68;94198.47;4837716;29;20033;-76
2023/11/22 03:35:06;;;;;;;19.05;11.30;;;;;;;8.02;64.76;94191.56;4867169;29;20036;-77
2023/11/22 03:37:32;;;;;;;18.70;10.80;;;;;;;7.98;65.17;94196.41;4853179;29;20033;-77
2023/11/22 03:39:57;;;;;;;15.77;11.18;;;;;;;8.03;64.91;94182.19;4871980;29;20045;-77
2023/11/22 03:42:23;;;;;;;15.63;10.63;;;;;;;8.03;64.81;94186.88;4849660;29;20121;-77
2023/11/22 03:44:48;;;;;;;14.55;10.88;;;;;;;7.97;64.95;94187.44;4861168;29;20048;-76
2023/11/22 03:47:15;;;;;;;17.30;11.38;;;;;;;7.95;65.00;94187.09;4870248;29;20037;-77
2023/11/22 03:49:41;;;;;;;15.23;10.23;;;;;;;7.97;65.02;94176.50;4859175;29;20128;-77
2023/11/22 03:52:08;;;;;;;16.42;11.40;;;;;;;7.98;65.08;94182.72;4874054;29;20532;-78
2023/11/22 03:54:33;;;;;;;16.00;10.98;;;;;;;7.96;65.24;94185.88;4866044;29;20516;-76
2023/11/22 03:56:59;;;;;;;20.45;11.88;;;;;;;7.96;65.49;94183.16;4870533;29;20116;-77
2023/11/22 03:59:24;;;;;;;17.00;11.23;;;;;;;7.96;65.36;94185.13;4839544;29;20061;-77
2023/11/22 04:01:50;;;;;;;17.27;10.90;;;;;;;7.97;65.52;94186.66;4840717;29;20042;-76
2023/11/22 04:04:16;;;;;;;23.25;11.13;;;;;;;7.97;65.47;94198.38;4870053;29;20033;-77
2023/11/22 04:06:42;;;;;;;19.80;11.65;;;;;;;7.98;65.58;94199.16;4868718;29;20031;-78
2023/11/22 04:09:08;;;;;;;20.67;11.35;;;;;;;7.97;65.36;94205.81;4843385;29;20048;-78
2023/11/22 04:11:34;;;;;;;16.17;11.98;;;;;;;7.98;65.24;94207.38;4843114;29;20032;-77
2023/11/22 04:14:00;;;;;;;15.82;10.93;;;;;;;8.00;65.56;94213.16;4858154;29;20044;-77
2023/11/22 04:16:25;;;;;;;17.02;11.23;;;;;;;8.01;65.27;94211.94;4857466;29;20029;-77
2023/11/22 04:18:50;;;;;;;19.02;11.25;;;;;;;8.04;65.32;94215.78;4863984;29;20037;-77
2023/11/22 04:21:16;;;;;;;22.45;12.35;;;;;;;8.00;65.46;94226.84;4856167;29;20116;-77
2023/11/22 04:23:42;;;;;;;21.77;11.43;;;;;;;7.99;65.44;94234.28;4839982;29;20057;-77
2023/11/22 04:26:07;;;;;;;16.95;11.50;;;;;;;8.01;65.41;94239.31;4846883;29;20128;-78
2023/11/22 04:28:33;;;;;;;20.15;12.10;;;;;;;8.03;65.41;94239.66;4865036;29;20112;-77
2023/11/22 04:30:59;;;;;;;18.80;11.85;;;;;;;7.95;65.49;94225.41;4867072;29;20087;-78
2023/11/22 04:33:27;;;;;;;16.67;11.00;;;;;;;7.99;65.53;94228.81;4872827;29;20505;-78
2023/11/22 04:35:53;;;;;;;17.10;11.80;;;;;;;7.97;65.74;94225.75;4849996;29;20041;-77
2023/11/22 04:38:18;;;;;;;18.35;12.27;;;;;;;7.97;65.94;94233.19;4869919;29;20511;-78
2023/11/22 04:40:44;;;;;;;14.98;10.77;;;;;;;7.97;66.11;94231.22;4859286;29;20041;-78
2023/11/22 04:43:10;;;;;;;16.17;11.00;;;;;;;7.99;66.06;94241.75;4841770;29;20033;-77
2023/11/22 04:45:36;;;;;;;18.65;11.70;;;;;;;7.98;66.24;94242.94;4857119;29;20085;-78
2023/11/22 04:48:01;;;;;;;16.40;12.05;;;;;;;8.02;66.28;94248.28;4856044;29;20112;-78
2023/11/22 04:50:27;;;;;;;19.30;12.35;;;;;;;7.98;66.13;94251.91;4847937;29;20069;-77
2023/11/22 04:52:52;;;;;;;17.65;11.65;;;;;;;7.99;66.54;94264.41;4885399;29;20021;-78
2023/11/22 04:55:19;;;;;;;19.55;14.52;;;;;;;7.95;66.68;94266.47;4885796;29;20033;-77
2023/11/22 04:57:45;;;;;;;21.67;13.57;;;;;;;7.92;67.04;94272.06;4870210;29;20064;-77
2023/11/22 05:00:11;;;;;;;21.75;12.93;;;;;;;7.93;66.90;94274.34;4868974;29;20083;-77
2023/11/22 05:02:37;;;;;;;20.30;13.73;;;;;;;7.94;66.62;94281.34;4871772;29;20543;-77
2023/11/22 05:05:03;;;;;;;23.20;13.57;;;;;;;7.96;66.72;94283.66;4851361;29;20189;-79
2023/11/22 05:07:29;;;;;;;21.73;14.43;;;;;;;7.97;66.46;94285.97;4869407;29;20111;-76
2023/11/22 05:09:55;;;;;;;22.73;13.88;;;;;;;7.96;66.52;94295.38;4841133;29;20537;-76
2023/11/22 05:12:20;;;;;;;20.75;14.90;;;;;;;7.98;66.51;94297.69;4868451;29;20396;-76
2023/11/22 05:14:46;;;;;;;21.55;12.82;;;;;;;7.99;66.59;94305.47;4862375;29;20034;-77
2023/11/22 05:17:12;;;;;;;19.63;12.70;;;;;;;8.03;66.22;94302.63;4887371;29;20101;-77
2023/11/22 05:19:38;;;;;;;23.48;12.68;;;;;;;8.03;66.24;94302.63;4873432;29;20137;-77
2023/11/22 05:22:03;;;;;;;17.10;12.20;;;;;;;8.01;66.26;94305.00;4859409;29;20537;-77
2023/11/22 05:24:29;;;;;;;27.02;13.68;;;;;;;8.02;66.52;94305.78;4857402;29;20029;-77
2023/11/22 05:26:54;;;;;;;20.70;13.13;;;;;;;8.01;66.79;94307.75;4873245;29;20029;-77
2023/11/22 05:29:19;;;;;;;18.83;13.10;;;;;;;8.06;66.82;94317.41;4841252;29;20037;-77
2023/11/22 05:31:45;;;;;;;20.27;14.18;;;;;;;8.03;66.75;94330.00;4857151;29;20120;-76
2023/11/22 05:34:10;;;;;;;19.05;12.38;;;;;;;8.01;66.37;94326.91;4860793;29;20030;-76
2023/11/22 05:36:36;;;;;;;23.58;13.65;;;;;;;8.07;66.39;94330.66;4853823;29;20145;-77
2023/11/22 05:39:03;;;;;;;21.58;12.35;;;;;;;7.98;66.63;94322.31;4856735;29;20101;-78
2023/11/22 05:41:29;;;;;;;19.90;12.65;;;;;;;8.10;66.79;94348.94;4870426;29;20030;-78
2023/11/22 05:43:54;;;;;;;18.88;13.43;;;;;;;8.10;66.88;94340.75;4857605;29;20101;-78
2023/11/22 05:46:21;;;;;;;26.65;14.05;;;;;;;8.10;67.17;94342.72;4855527;29;20123;-76
2023/11/22 05:48:53;;;;;;;20.80;13.90;;;;;;;8.08;67.96;94339.63;4856607;29;20912;-77
2023/11/22 05:51:19;;;;;;;22.10;14.07;;;;;;;8.10;67.89;94343.47;4856062;29;20033;-77
2023/11/22 05:53:45;;;;;;;29.05;15.63;;;;;;;8.11;68.09;94353.22;4847080;29;20105;-77
2023/11/22 05:56:11;;;;;;;22.15;15.13;;;;;;;8.12;68.53;94353.97;4868518;29;20049;-78
2023/11/22 05:58:38;;;;;;;19.02;14.48;;;;;;;8.14;68.18;94355.09;4841939;29;20410;-77
2023/11/22 06:01:12;;;;;;;28.73;17.25;;;;;;;8.17;67.94;94359.69;4838727;29;20040;-78
2023/11/22 06:03:38;;;;;;;24.92;17.48;;;;;;;8.18;68.47;94363.97;4852598;29;20033;-78
2023/11/22 06:06:04;;;;;;;29.48;17.85;;;;;;;8.19;68.50;94372.94;4838027;29;20109;-77
2023/11/22 06:08:30;;;;;;;26.45;18.20;;;;;;;8.19;68.57;94365.50;4838710;29;20591;-78
2023/11/22 06:10:57;;;;;;;26.73;18.00;;;;;;;8.22;68.42;94375.59;4867306;29;20055;-78
2023/11/22 06:13:23;;;;;;;26.17;17.23;;;;;;;8.23;68.23;94374.38;4867052;29;20140;-77
2023/11/22 06:15:49;;;;;;;25.83;18.02;;;;;;;8.26;68.39;94389.19;4852819;29;20037;-77
2023/11/22 06:18:15;;;;;;;22.65;17.13;;;;;;;8.24;68.53;94394.31;4843211;29;20041;-80
2023/11/22 06:20:41;;;;;;;29.58;20.65;;;;;;;8.24;68.95;94394.31;4866057;29;20025;-78
2023/11/22 06:23:06;;;;;;;28.00;20.50;;;;;;;8.23;68.99;94390.81;4868156;29;20033;-79
2023/11/22 06:25:32;;;;;;;27.88;19.08;;;;;;;8.23;68.79;94401.75;4838390;29;20190;-78
2023/11/22 06:27:58;;;;;;;27.65;18.70;;;;;;;8.19;68.96;94395.59;4867960;29;20041;-78
2023/11/22 06:30:24;;;;;;;23.65;17.33;;;;;;;8.25;68.74;94401.31;4869342;29;20042;-79
2023/11/22 06:32:50;;;;;;;21.92;16.52;;;;;;;8.28;68.91;94402.44;4856406;29;20068;-78
2023/11/22 06:35:17;;;;;;;22.98;16.85;;;;;;;8.30;68.78;94408.25;4864124;29;20029;-78
2023/11/22 06:37:43;;;;;;;28.23;17.30;;;;;;;8.30;68.89;94413.72;4872412;29;20034;-79
2023/11/22 06:40:09;;;;;;;26.38;17.73;;;;;;;8.32;68.89;94423.06;4840168;29;20041;-76
2023/11/22 06:42:34;;;;;;;27.10;19.23;;;;;;;8.34;69.11;94423.38;4844908;29;20032;-78
2023/11/22 06:45:00;;;;;;;32.42;19.70;;;;;;;8.35;69.12;94424.13;4868080;29;20029;-77
2023/11/22 06:47:27;;;;;;;28.13;21.02;;;;;;;8.38;69.12;94415.09;4868291;29;20037;-77
2023/11/22 06:49:53;;;;;;;32.45;20.40;;;;;;;8.38;69.07;94421.34;4852930;29;20529;-78
2023/11/22 06:52:18;;;;;;;28.27;19.00;;;;;;;8.40;69.11;94429.88;4867946;29;20044;-77
2023/11/22 06:54:44;;;;;;;26.55;18.13;;;;;;;8.40;68.95;94427.13;4868817;29;20177;-78
2023/11/22 06:57:09;;;;;;;25.88;19.15;;;;;;;8.43;69.26;94425.50;4852117;29;20537;-78
2023/11/22 06:59:35;;;;;;;31.92;18.98;;;;;;;8.44;69.24;94419.59;4868691;29;20025;-78
2023/11/22 07:02:00;;;;;;;24.77;18.38;;;;;;;8.51;69.38;94433.09;4868563;29;20045;-78
2023/11/22 07:04:25;;;;;;;26.17;18.10;;;;;;;8.59;69.24;94447.34;4837659;29;20666;-78
2023/11/22 07:06:51;;;;;;;28.70;19.88;;;;;;;8.60;69.40;94437.13;4854586;29;20037;-77
2023/11/22 07:09:16;;;;;;;26.13;18.63;;;;;;;8.66;69.31;94443.63;4852227;29;20033;-78
2023/11/22 07:11:44;;;;;;;24.98;17.67;;;;;;;8.65;69.39;94444.81;4868585;29;20041;-78
2023/11/22 07:14:09;;;;;;;27.55;16.60;;;;;;;8.61;69.64;94447.69;4855047;29;20025;-77
2023/11/22 07:16:35;;;;;;;29.08;16.77;;;;;;;8.63;69.89;94453.47;4855989;29;20040;-77
2023/11/22 07:19:06;;;;;;;26.20;18.30;;;;;;;8.63;69.84;94447.25;4870202;29;20076;-77
2023/11/22 07:21:32;;;;;;;22.65;16.80;;;;;;;8.66;69.97;94451.84;4867550;29;20025;-77
2023/11/22 07:24:01;;;;;;;22.40;17.13;;;;;;;8.65;69.85;94448.31;4836980;29;20131;-78
2023/11/22 07:26:26;;;;;;;27.85;19.20;;;;;;;8.66;70.09;94447.16;4867066;29;20112;-77
2023/11/22 07:28:52;;;;;;;27.20;18.48;;;;;;;8.66;70.64;94455.38;4867960;29;20060;-77
2023/11/22 07:31:19;;;;;;;26.35;17.80;;;;;;;8.69;70.96;94462.69;4865774;29;20755;-79
2023/11/22 07:33:45;;;;;;;23.42;17.33;;;;;;;8.73;71.03;94466.13;4856225;29;20030;-79
2023/11/22 07:36:14;;;;;;;26.25;16.83;;;;;;;8.74;70.30;94470.38;4885897;29;20032;-78
2023/11/22 07:38:40;;;;;;;24.13;16.75;;;;;;;8.83;69.79;94467.00;4868055;29;20047;-78
2023/11/22 07:41:07;;;;;;;22.90;16.98;;;;;;;8.84;69.39;94462.31;4836764;29;20041;-79
2023/11/22 07:43:32;;;;;;;22.80;15.90;;;;;;;8.80;69.50;94464.38;4853135;29;20116;-77
2023/11/22 07:45:59;;;;;;;23.88;16.75;;;;;;;8.82;69.57;94467.44;4867530;29;20112;-77
2023/11/22 07:48:25;;;;;;;24.98;18.90;;;;;;;8.86;70.27;94468.88;4867070;29;20057;-79
2023/11/22 07:50:51;;;;;;;28.27;18.80;;;;;;;8.89;70.46;94472.69;4839295;29;20072;-78
2023/11/22 07:53:17;;;;;;;26.23;19.25;;;;;;;8.92;70.43;94472.59;4863667;29;20081;-78
2023/11/22 07:55:43;;;;;;;26.05;17.50;;;;;;;8.95;70.16;94473.72;4855238;29;20472;-77
2023/11/22 07:58:08;;;;;;;28.55;17.55;;;;;;;8.95;70.02;94477.22;4851449;29;20584;-79
2023/11/22 08:00:34;;;;;;;21.17;13.98;;;;;;;9.01;69.14;94477.44;4871946;29;20060;-79
2023/11/22 08:03:02;;;;;;;17.10;14.13;;;;;;;8.98;69.20;94481.06;4855036;29;20030;-78
2023/11/22 08:05:36;;;;;;;22.42;15.60;;;;;;;8.98;69.60;94481.06;4844990;29;20037;-78
2023/11/22 08:08:07;;;;;;;;;;;;;;;9.02;70.13;94481.72;4847603;29;20121;-78
2023/11/22 08:10:36;;;;;;;23.75;15.75;;;;;;;8.99;70.39;94479.84;4866351;29;19951;-78
2023/11/22 08:13:03;;;;;;;20.75;15.07;;;;;;;9.01;70.39;94477.44;4860526;29;20473;-78
2023/11/22 08:15:29;;;;;;;20.15;14.90;;;;;;;9.02;70.38;94479.75;4866572;29;20036;-78
2023/11/22 08:17:55;;;;;;;19.30;13.75;;;;;;;9.08;69.93;94474.47;4869203;29;20527;-80
2023/11/22 08:20:20;;;;;;;22.48;15.73;;;;;;;9.06;70.06;94463.19;4854649;29;20439;-79
2023/11/22 08:22:47;;;;;;;24.65;16.83;;;;;;;9.12;70.10;94472.41;4871114;29;20033;-77
2023/11/22 08:25:12;;;;;;;29.98;18.52;;;;;;;9.13;69.85;94476.69;4869012;29;20036;-76
2023/11/22 08:27:41;;;;;;;22.30;14.82;;;;;;;9.18;69.43;94483.59;4842238;29;20033;-76
2023/11/22 08:30:14;;;;;;;22.95;15.50;;;;;;;9.20;69.20;94483.91;4862456;29;20045;-76
2023/11/22 08:32:47;;;;;;;24.20;15.20;;;;;;;9.21;68.95;94490.94;4839646;29;20511;-76
2023/11/22 08:35:15;;;;;;;22.30;14.35;;;;;;;9.23;68.61;94500.28;4869613;29;20290;-77
2023/11/22 08:37:42;;;;;;;20.30;13.57;;;;;;;9.22;68.29;94493.22;4831737;29;20143;-77
2023/11/22 08:40:09;;;;;;;18.27;11.95;;;;;;;9.25;67.96;94505.31;4860219;29;20248;-77
2023/11/22 08:42:36;;;;;;;17.13;12.30;;;;;;;9.26;68.02;94498.63;4838489;29;20144;-77
2023/11/22 08:45:03;;;;;;;19.10;11.93;;;;;;;9.24;67.90;94496.31;4864111;29;20073;-76
2023/11/22 08:47:31;;;;;;;15.10;10.80;;;;;;;9.29;67.64;94489.53;4863670;29;20065;-76
2023/11/22 08:49:57;;;;;;;13.93;10.80;;;;;;;9.28;67.58;94488.72;4855839;29;20025;-76
2023/11/22 08:52:24;;;;;;;16.08;11.48;;;;;;;9.31;68.15;94496.09;4854256;29;20051;-77
2023/11/22 08:54:51;;;;;;;18.17;12.30;;;;;;;9.31;68.54;94509.06;4855973;29;20033;-77
2023/11/22 08:57:18;;;;;;;17.27;13.05;;;;;;;9.30;68.39;94508.28;4838988;29;20046;-77
2023/11/22 08:59:43;;;;;;;21.50;14.02;;;;;;;9.32;68.38;94510.56;4839278;29;20035;-76
2023/11/22 09:02:12;;;;;;;20.42;14.75;;;;;;;9.33;68.71;94509.38;4869316;29;20045;-77
2023/11/22 09:04:38;;;;;;;22.88;15.60;;;;;;;9.34;68.90;94513.63;4855946;29;20078;-76
2023/11/22 09:07:05;;;;;;;23.80;17.58;;;;;;;9.38;69.02;94516.28;4869561;29;20021;-78
2023/11/22 09:09:31;;;;;;;32.08;18.60;;;;;;;9.41;68.76;94518.94;4839309;29;20072;-78
2023/11/22 09:11:57;;;;;;;25.88;19.83;;;;;;;9.53;68.50;94523.66;4869606;29;20053;-77
2023/11/22 09:14:23;;;;;;;27.50;19.38;;;;;;;9.56;68.50;94528.25;4855264;29;20052;-77
2023/11/22 09:16:54;;;;;;;30.05;22.55;;;;;;;9.52;68.35;94529.56;4855924;29;20504;-77
2023/11/22 09:19:23;;;;;;;41.28;26.75;;;;;;;9.53;68.21;94534.63;4839091;29;20038;-78
2023/11/22 09:21:49;;;;;;;36.05;24.52;;;;;;;9.54;67.85;94532.63;4838888;29;20045;-78
2023/11/22 09:24:14;;;;;;;30.77;23.30;;;;;;;9.49;68.07;94531.22;4869261;29;20036;-78
2023/11/22 09:26:40;;;;;;;36.55;25.25;;;;;;;9.45;68.23;94521.53;4869362;29;20081;-77
2023/11/22 09:29:06;;;;;;;32.00;23.33;;;;;;;9.51;68.10;94528.03;4838630;29;20022;-76
2023/11/22 09:31:31;;;;;;;39.85;25.45;;;;;;;9.48;68.24;94526.94;4838604;29;20173;-77
2023/11/22 09:33:56;;;;;;;38.90;27.30;;;;;;;9.51;68.43;94536.25;4869684;29;20086;-77
2023/11/22 09:36:24;;;;;;;38.88;26.55;;;;;;;9.50;68.57;94535.47;4853044;29;20031;-76
2023/11/22 09:38:50;;;;;;;42.75;27.88;;;;;;;9.52;68.45;94532.31;4853427;29;20045;-76
2023/11/22 09:41:17;;;;;;;41.65;26.17;;;;;;;9.53;68.33;94536.59;4868758;29;20026;-77
2023/11/22 09:43:44;;;;;;;38.47;25.92;;;;;;;9.55;68.48;94536.91;4838265;29;20041;-77
2023/11/22 09:46:11;;;;;;;39.17;24.40;;;;;;;9.58;68.33;94531.31;4868916;29;20072;-77
2023/11/22 09:48:36;;;;;;;35.70;23.83;;;;;;;9.63;68.26;94535.47;4838614;29;20030;-77
2023/11/22 09:51:07;;;;;;;32.97;22.98;;;;;;;9.65;68.34;94535.81;4869235;29;20032;-77
2023/11/22 09:53:34;;;;;;;33.63;22.00;;;;;;;9.66;68.62;94540.09;4854727;29;20041;-76
2023/11/22 09:56:02;;;;;;;31.95;21.65;;;;;;;9.67;68.62;94527.91;4854954;29;20499;-76
2023/11/22 09:58:31;;;;;;;30.92;21.63;;;;;;;9.74;68.67;94521.41;4868453;29;20443;-76
2023/11/22 10:00:56;;;;;;;27.35;20.58;;;;;;;9.83;68.16;94527.00;4868965;29;20040;-77
2023/11/22 10:03:23;;;;;;;30.60;19.65;;;;;;;9.88;67.98;94520.97;4868536;29;20029;-76
2023/11/22 10:05:49;;;;;;;33.42;20.88;;;;;;;9.90;68.11;94529.53;4868977;29;20476;-77
2023/11/22 10:08:16;;;;;;;27.98;19.77;;;;;;;9.90;68.26;94529.53;4838038;29;20037;-76
2023/11/22 10:10:44;;;;;;;28.65;20.02;;;;;;;9.92;68.50;94526.31;4868058;29;20037;-76
2023/11/22 10:13:09;;;;;;;28.80;21.23;;;;;;;9.94;68.50;94524.69;4868636;29;20060;-79
2023/11/22 10:15:35;;;;;;;26.90;19.48;;;;;;;9.96;68.46;94518.75;4853841;29;20065;-78
2023/11/22 10:18:00;;;;;;;28.13;20.08;;;;;;;10.01;68.68;94521.69;4868567;29;20133;-78
2023/11/22 10:20:40;;;;;;;24.95;17.75;;;;;;;10.07;68.43;94516.41;4868365;29;20109;-76
2023/11/22 10:23:15;;;;;;;28.77;18.85;;;;;;;10.10;68.35;94524.53;4822738;29;20029;-78
2023/11/22 10:25:52;;;;;;;23.77;17.27;;;;;;;10.11;67.87;94533.56;4822655;29;20033;-78
2023/11/22 10:28:21;;;;;;;24.60;17.02;;;;;;;10.17;67.80;94531.78;4853715;29;20033;-78
2023/11/22 10:30:47;;;;;;;24.40;16.63;;;;;;;10.23;67.66;94524.53;4837534;29;20097;-78
2023/11/22 10:33:14;;;;;;;24.25;15.35;;;;;;;10.32;67.21;94521.88;4854012;29;20531;-76
2023/11/22 10:35:46;;;;;;;24.33;15.35;;;;;;;10.33;67.53;94525.38;4852610;29;20045;-77
2023/11/22 10:38:15;;;;;;;22.40;14.80;;;;;;;10.32;67.39;94524.63;4868387;29;20040;-78
2023/11/22 10:40:44;;;;;;;16.88;12.68;;;;;;;10.39;66.64;94522.84;4867957;29;20063;-76
2023/11/22 10:43:11;;;;;;;15.68;11.80;;;;;;;10.40;66.19;94525.13;4837561;29;20033;-77
2023/11/22 10:45:37;;;;;;;16.83;12.00;;;;;;;10.45;65.83;94529.31;4867805;29;20029;-77
2023/11/22 10:48:03;;;;;;;16.08;11.18;;;;;;;10.42;65.81;94525.44;4851855;29;20037;-76
2023/11/22 10:50:28;;;;;;;16.02;11.85;;;;;;;10.43;66.16;94537.97;4867905;29;20034;-77
2023/11/22 10:52:56;;;;;;;16.83;11.85;;;;;;;10.44;66.40;94533.28;4852303;29;20026;-77
2023/11/22 10:55:31;;;;;;;15.82;12.73;;;;;;;10.48;66.09;94531.16;4867673;29;20042;-77
2023/11/22 10:58:02;;;;;;;16.90;12.68;;;;;;;10.49;66.15;94527.94;4867882;29;20452;-76
2023/11/22 11:00:28;;;;;;;16.85;12.57;;;;;;;10.53;66.13;94536.06;4868225;29;20537;-76
2023/11/22 11:03:04;;;;;;;20.95;13.07;;;;;;;10.53;65.74;94534.09;4867232;29;20103;-76
2023/11/22 11:05:31;;;;;;;16.85;12.07;;;;;;;10.57;65.93;94531.22;4867877;29;20056;-78
2023/11/22 11:08:12;;;;;;;18.88;13.40;;;;;;;10.61;65.77;94531.88;4853224;29;20029;-77
2023/11/22 11:10:42;;;;;;;15.02;12.43;;;;;;;10.58;65.72;94533.53;4867622;29;20037;-77
2023/11/22 11:13:11;;;;;;;16.83;12.55;;;;;;;10.59;66.09;94535.06;4852331;29;20031;-77
2023/11/22 11:15:38;;;;;;;18.67;13.13;;;;;;;10.60;66.26;94533.84;4867612;29;20029;-77
2023/11/22 11:18:05;;;;;;;18.52;13.20;;;;;;;10.61;66.75;94529.13;4836809;29;20044;-77
2023/11/22 11:21:07;;;;;;;18.65;13.30;;;;;;;10.64;66.41;94533.72;4851727;29;20434;-76